Data for 04/15/2018

Time Sea-Level Adjusted Pressure Absolute Pressure Temperature Relative Humidity Dew Point   
(mb) (inHg) (mb) (inHg) (C) (F) (%) (C) (F)
00:05 1020 30.12 850 25.1 3.4 38.1 71 -1.3 29.6
00:10 1020 30.12 849 25.07 3.5 38.2 71 -1.3 29.6
00:15 1020 30.12 849 25.07 3.4 38.1 72 -1.3 29.7
00:20 1020 30.12 849 25.07 3.3 37.9 72 -1.4 29.5
00:25 1020 30.12 849 25.07 3.3 37.9 71 -1.5 29.4
00:30 1020 30.12 849 25.07 3.2 37.8 71 -1.5 29.3
00:35 1020 30.12 849 25.07 3.1 37.6 72 -1.5 29.3
00:40 1020 30.12 849 25.07 2.8 37.1 73 -1.5 29.3
00:45 1020 30.12 849 25.07 2.7 36.9 73 -1.6 29.1
00:50 1020 30.12 849 25.07 2.8 37 72 -1.7 28.9
00:55 1020 30.12 849 25.07 3 37.3 71 -1.9 28.7
01:00 1020 30.12 849 25.07 3 37.4 70 -1.9 28.6
01:05 1020 30.12 849 25.07 3 37.5 70 -1.9 28.6
01:10 1020 30.12 849 25.07 3 37.4 70 -2 28.4
01:15 1020 30.12 849 25.07 3 37.4 70 -1.9 28.7
01:20 1020 30.12 849 25.07 2.9 37.2 72 -1.8 28.8
01:25 1020 30.12 849 25.07 2.9 37.3 71 -1.8 28.7
01:30 1020 30.12 849 25.07 2.8 37.1 71 -1.9 28.5
01:35 1020 30.12 849 25.07 2.7 36.9 71 -2 28.5
01:40 1020 30.12 849 25.07 2.6 36.8 72 -2 28.4
01:45 1020 30.12 849 25.07 2.6 36.7 71 -2.2 28.1
01:50 1020 30.12 849 25.07 2.8 37 70 -2.2 28.1
01:55 1019 30.09 849 25.07 2.7 36.8 71 -2.1 28.2
02:00 1020 30.12 849 25.07 2.7 36.9 70 -2.1 28.1
02:05 1019 30.09 849 25.07 2.6 36.7 70 -2.2 28
02:10 1019 30.09 849 25.07 2.4 36.4 71 -2.2 28
02:15 1019 30.09 849 25.07 2.1 35.7 72 -2.4 27.7
02:20 1019 30.09 849 25.07 2 35.6 71 -2.7 27.2
02:25 1019 30.09 849 25.07 2.4 36.2 70 -2.5 27.4
02:30 1019 30.09 849 25.07 2.2 36 71 -2.5 27.6
02:35 1019 30.09 849 25.07 2 35.6 72 -2.6 27.3
02:40 1019 30.09 849 25.07 2.3 36.2 69 -2.7 27.2
02:45 1019 30.09 849 25.07 2.7 36.8 68 -2.7 27.2
02:50 1019 30.09 848 25.04 2.5 36.5 69 -2.5 27.4
02:55 1019 30.09 848 25.04 2.1 35.7 71 -2.7 27.2
03:00 1019 30.09 848 25.04 1.9 35.4 72 -2.7 27.1
03:05 1019 30.09 848 25.04 1.7 35.1 72 -2.8 27
03:10 1019 30.09 848 25.04 1.6 34.9 73 -2.8 27
03:15 1019 30.09 848 25.04 1.4 34.6 73 -2.8 26.9
03:20 1019 30.09 848 25.04 1.4 34.5 73 -3 26.6
03:25 1019 30.09 848 25.04 1.5 34.7 72 -3.1 26.5
03:30 1019 30.09 848 25.04 1.8 35.3 71 -2.9 26.8
03:35 1019 30.09 848 25.04 2 35.5 70 -3 26.7
03:40 1019 30.09 848 25.04 2 35.6 70 -3 26.7
03:45 1019 30.09 848 25.04 1.9 35.5 70 -3 26.6
03:50 1019 30.09 848 25.04 2.1 35.8 68 -3.1 26.4
03:55 1019 30.09 848 25.04 2.3 36.2 67 -3.1 26.4
04:00 1019 30.09 848 25.04 2.5 36.5 67 -2.9 26.7
04:05 1019 30.09 848 25.04 2 35.6 70 -3 26.7
04:10 1019 30.09 848 25.04 2.1 35.8 69 -3 26.6
04:15 1019 30.09 848 25.04 1.8 35.3 70 -3 26.6
04:20 1019 30.09 848 25.04 1.5 34.7 71 -3.2 26.3
04:25 1019 30.09 848 25.04 1.3 34.3 73 -3.1 26.4
04:30 1019 30.09 848 25.04 1 33.7 74 -3.1 26.4
04:35 1019 30.09 848 25.04 1 33.9 74 -3.2 26.3
04:40 1019 30.09 848 25.04 1.2 34.1 73 -3.2 26.3
04:45 1019 30.09 848 25.04 1.2 34.2 73 -3.1 26.5
04:50 1019 30.09 848 25.04 1.4 34.5 72 -3.1 26.4
04:55 1019 30.09 848 25.04 1.4 34.6 71 -3.2 26.2
05:00 1019 30.09 848 25.04 1.4 34.4 71 -3.3 26.1
05:05 1019 30.09 848 25.04 1.3 34.4 72 -3.2 26.3
05:10 1019 30.09 848 25.04 1.3 34.3 71 -3.3 26
05:15 1019 30.09 848 25.04 1.3 34.4 71 -3.3 26.1
05:20 1019 30.09 848 25.04 1.3 34.3 72 -3.3 26.1
05:25 1019 30.09 848 25.04 1.1 33.9 73 -3.3 26.1
05:30 1019 30.09 848 25.04 1 33.8 73 -3.4 25.9
05:35 1019 30.09 848 25.04 1 33.9 72 -3.4 25.9
05:40 1018 30.06 848 25.04 1.5 34.7 71 -3.3 26.1
05:45 1018 30.06 848 25.04 1.5 34.6 71 -3.3 26.1
05:50 1018 30.06 848 25.04 1.4 34.5 71 -3.2 26.2
05:55 1018 30.06 847 25.01 1.2 34.1 73 -3.2 26.2
06:00 1018 30.06 847 25.01 0.8 33.4 74 -3.3 26
06:05 1018 30.06 847 25.01 0.7 33.3 74 -3.4 25.9
06:10 1018 30.06 847 25.01 0.8 33.4 74 -3.4 25.8
06:15 1018 30.06 847 25.01 0.9 33.7 73 -3.4 25.8
06:20 1018 30.06 847 25.01 1.1 34 71 -3.5 25.6
06:25 1018 30.06 847 25.01 1.4 34.5 70 -3.6 25.6
06:30 1018 30.06 847 25.01 1.6 34.9 69 -3.5 25.7
06:35 1018 30.06 847 25.01 1.7 35.1 68 -3.6 25.5
06:40 1018 30.06 847 25.01 1.8 35.2 68 -3.4 25.8
06:45 1018 30.06 847 25.01 1.6 34.9 69 -3.4 25.8
06:50 1018 30.06 847 25.01 1.5 34.8 69 -3.6 25.5
06:55 1018 30.06 847 25.01 1.6 34.9 69 -3.5 25.7
07:00 1018 30.06 847 25.01 1.7 35.1 68 -3.5 25.7
07:05 1018 30.06 847 25.01 1.8 35.3 68 -3.5 25.7
07:10 1018 30.06 847 25.01 1.8 35.3 68 -3.5 25.7
07:15 1018 30.06 847 25.01 2 35.6 67 -3.5 25.7
07:20 1017 30.03 847 25.01 2 35.6 67 -3.5 25.7
07:25 1017 30.03 847 25.01 2.2 36 66 -3.6 25.6
07:30 1017 30.03 847 25.01 2.4 36.3 65 -3.5 25.7
07:35 1017 30.03 847 25.01 2.6 36.6 64 -3.6 25.6
07:40 1017 30.03 847 25.01 2.7 36.8 65 -3.3 26
07:45 1017 30.03 847 25.01 2.7 36.8 64 -3.4 25.9
07:50 1017 30.03 847 25.01 2.5 36.5 65 -3.5 25.8
07:55 1017 30.03 847 25.01 2.6 36.7 64 -3.5 25.8
08:00 1017 30.03 847 25.01 2.9 37.2 63 -3.6 25.6
08:05 1017 30.03 847 25.01 3.1 37.6 63 -3.2 26.2
08:10 1017 30.03 847 25.01 3.1 37.6 63 -3.3 26.1
08:15 1017 30.03 846 24.98 3.4 38.1 62 -3.3 26.1
08:20 1017 30.03 846 24.98 3.8 38.8 60 -3.2 26.3
08:25 1017 30.03 846 24.98 4.4 39.9 56 -3.6 25.6
08:30 1017 30.03 846 24.98 4.7 40.5 56 -3.2 26.2
08:35 1017 30.03 846 24.98 4.8 40.7 56 -3.2 26.3
08:40 1017 30.03 846 24.98 4.9 40.9 56 -3 26.5
08:45 1017 30.03 846 24.98 5.1 41.2 56 -3.1 26.5
08:50 1017 30.03 846 24.98 5.3 41.6 54 -3.2 26.3
08:55 1017 30.03 846 24.98 5.7 42.2 53 -3.1 26.4
09:00 1017 30.03 846 24.98 5.8 42.5 52 -3.1 26.4
09:05 1017 30.03 846 24.98 6.1 42.9 51 -3.3 26.1
09:10 1017 30.03 846 24.98 6.3 43.3 51 -3.1 26.4
09:15 1017 30.03 846 24.98 6.6 43.8 49 -3.3 26.1
09:20 1017 30.03 846 24.98 6.9 44.4 49 -3.2 26.3
09:25 1017 30.03 846 24.98 7.2 44.9 48 -3.1 26.4
09:30 1017 30.03 846 24.98 7.6 45.6 45 -3.5 25.8
09:35 1017 30.03 846 24.98 7.5 45.6 46 -3.2 26.2
09:40 1017 30.03 846 24.98 7.6 45.8 45 -3.4 25.9
09:45 1017 30.03 846 24.98 7.6 45.7 46 -3.3 26.1
09:50 1017 30.03 846 24.98 7.6 45.7 46 -3.3 26
09:55 1017 30.03 846 24.98 7.8 46.1 45 -3.4 25.9
10:00 1017 30.03 846 24.98 8 46.4 45 -3.2 26.2
10:05 1017 30.03 846 24.98 8.6 47.4 42 -3.6 25.5
10:10 1016 30 846 24.98 8.8 47.8 39 -4.3 24.3
10:15 1016 30 846 24.98 8.8 47.9 39 -4.2 24.5
10:20 1016 30 846 24.98 9.1 48.4 38 -4.3 24.2
10:25 1016 30 846 24.98 8.9 48.1 39 -4.2 24.5
10:30 1016 30 845 24.95 9 48.1 39 -4.1 24.6
10:35 1016 30 845 24.95 9 48.3 38 -4.4 24.1
10:40 1016 30 845 24.95 9.1 48.4 39 -4.1 24.6
10:45 1016 30 845 24.95 9.5 49.1 37 -4.3 24.2
10:50 1016 30 845 24.95 9.8 49.6 35 -4.8 23.4
10:55 1016 30 845 24.95 9.9 49.8 36 -4.3 24.3
11:00 1016 30 845 24.95 9.5 49.1 42 -2.9 26.8
11:05 1016 30 845 24.95 9.2 48.6 42 -3.1 26.5
11:10 1016 30 845 24.95 9.3 48.7 40 -3.7 25.4
11:15 1016 30 845 24.95 9.4 48.9 40 -3.5 25.7
11:20 1016 30 845 24.95 9.7 49.4 38 -4 24.9
11:25 1016 30 845 24.95 9.9 49.9 38 -3.7 25.3
11:30 1016 30 845 24.95 10.1 50.2 35 -4.6 23.7
11:35 1016 30 845 24.95 10.5 50.8 35 -4.2 24.5
11:40 1016 30 845 24.95 10.8 51.4 34 -4.6 23.7
11:45 1015 29.97 845 24.95 10.8 51.4 33 -5 23
11:50 1015 29.97 845 24.95 10.8 51.4 34 -4.4 24.1
11:55 1015 29.97 844 24.92 11 51.8 33 -4.4 24
12:00 1015 29.97 844 24.92 11.2 52.2 33 -4.4 24.1
12:05 1015 29.97 844 24.92 11.4 52.6 33 -4.4 24
12:10 1015 29.97 844 24.92 11.9 53.5 31 -4.7 23.5
12:15 1015 29.97 844 24.92 12.7 54.9 30 -4.3 24.3
12:20 1015 29.97 844 24.92 12.8 55.1 30 -4.1 24.6
12:25 1015 29.97 844 24.92 12.8 55 30 -4.4 24.1
12:30 1015 29.97 844 24.92 13.9 57.1 29 -4 24.9
12:35 1015 29.97 844 24.92 14.1 57.4 30 -3.2 26.2
12:40 1015 29.97 844 24.92 12.8 55.1 31 -3.8 25.2
12:45 1015 29.97 844 24.92 13.2 55.7 31 -3.4 25.9
12:50 1014 29.94 844 24.92 13.4 56 31 -3.5 25.7
12:55 1014 29.94 844 24.92 12.9 55.2 32 -3.3 26.1
13:00 1014 29.94 844 24.92 12.8 55.1 32 -3.6 25.6
13:05 1014 29.94 843 24.89 13 55.3 32 -3.3 26
13:10 1014 29.94 844 24.92 12.4 54.4 33 -3.6 25.6
13:15 1014 29.94 843 24.89 12.2 54 32 -4 24.7
13:20 1014 29.94 843 24.89 12.2 54 32 -4 24.8
13:25 1014 29.94 843 24.89 12.5 54.5 32 -3.9 25
13:30 1014 29.94 843 24.89 13.1 55.5 31 -3.5 25.7
13:35 1014 29.94 843 24.89 13.1 55.6 31 -3.7 25.3
13:40 1014 29.94 843 24.89 13.1 55.6 31 -3.4 25.9
13:45 1014 29.94 843 24.89 13.2 55.8 31 -3.6 25.5
13:50 1014 29.94 843 24.89 13.6 56.5 29 -3.8 25.2
13:55 1014 29.94 843 24.89 14.1 57.3 29 -3.4 25.8
14:00 1014 29.94 843 24.89 14 57.1 30 -3.4 25.9
14:05 1014 29.94 843 24.89 14.6 58.3 29 -3.3 26.1
14:10 1014 29.94 843 24.89 14.7 58.4 30 -2.7 27.1
14:15 1014 29.94 843 24.89 14.4 57.8 29 -3.6 25.6
14:20 1014 29.94 843 24.89 14.8 58.7 27 -3.8 25.2
14:25 1014 29.94 843 24.89 14.9 58.9 27 -3.8 25.1
14:30 1014 29.94 843 24.89 15.3 59.6 27 -3.6 25.4
14:35 1014 29.94 843 24.89 14.6 58.3 29 -3.3 26
14:40 1014 29.94 843 24.89 13.7 56.6 29 -3.8 25.2
14:45 1013 29.91 843 24.89 13.5 56.3 29 -4.1 24.6
14:50 1013 29.91 843 24.89 13.6 56.5 28 -4.4 24
14:55 1013 29.91 843 24.89 13.7 56.6 29 -3.9 25
15:00 1013 29.91 842 24.86 14.1 57.4 27 -4.4 24.2
15:05 1013 29.91 842 24.86 14.3 57.7 28 -3.7 25.3
15:10 1013 29.91 842 24.86 13.9 57 28 -4.3 24.2
15:15 1013 29.91 842 24.86 14 57.3 27 -4.5 23.9
15:20 1013 29.91 842 24.86 14.7 58.4 26 -4.6 23.7
15:25 1013 29.91 842 24.86 14.9 58.9 26 -4.3 24.3
15:30 1013 29.91 842 24.86 14.3 57.8 27 -4.6 23.8
15:35 1013 29.91 842 24.86 14.1 57.5 27 -4.5 23.9
15:40 1013 29.91 842 24.86 13.8 56.9 28 -4.5 23.9
15:45 1013 29.91 842 24.86 14 57.2 28 -4.3 24.2
15:50 1013 29.91 842 24.86 14 57.1 28 -4.1 24.6
15:55 1013 29.91 842 24.86 14 57.2 27 -4.4 24.1
16:00 1012 29.88 842 24.86 14.4 57.9 28 -3.9 24.9
16:05 1012 29.88 842 24.86 14.8 58.7 27 -4.2 24.5
16:10 1012 29.88 842 24.86 14.6 58.2 28 -3.7 25.4
16:15 1012 29.88 841 24.83 14.6 58.3 26 -4.6 23.7
16:20 1012 29.88 841 24.83 14.8 58.6 27 -3.9 24.9
16:25 1012 29.88 841 24.83 14.5 58 25 -5.3 22.5
16:30 1012 29.88 841 24.83 15 59.1 21 -7.1 19.2
16:35 1012 29.88 841 24.83 15.5 60 20 -7.1 19.2
16:40 1012 29.88 841 24.83 14.9 58.8 20 -7.5 18.5
16:45 1012 29.88 841 24.83 14.6 58.3 21 -7.2 19.1
16:50 1012 29.88 841 24.83 14.9 58.8 20 -7.6 18.3
16:55 1012 29.88 841 24.83 14.8 58.6 22 -6.6 20.2
17:00 1012 29.88 841 24.83 14.8 58.6 22 -6.4 20.5
17:05 1012 29.88 841 24.83 15.1 59.2 23 -5.6 22
17:10 1012 29.88 841 24.83 14.8 58.6 22 -6.5 20.3
17:15 1012 29.88 841 24.83 14.8 58.7 21 -7 19.3
17:20 1012 29.88 841 24.83 14.7 58.4 21 -7.3 18.9
17:25 1012 29.88 841 24.83 14.5 58 21 -7.5 18.4
17:30 1012 29.88 841 24.83 14.6 58.3 22 -6.5 20.2
17:35 1011 29.85 841 24.83 14.9 58.8 21 -7.4 18.8
17:40 1011 29.85 841 24.83 14.7 58.5 21 -7.1 19.2
17:45 1012 29.88 841 24.83 14.7 58.4 22 -6.8 19.7
17:50 1012 29.88 841 24.83 14.8 58.7 21 -7 19.4
17:55 1012 29.88 841 24.83 14.8 58.6 21 -7.1 19.2
18:00 1011 29.85 841 24.83 14.8 58.6 21 -7.4 18.8
18:05 1011 29.85 841 24.83 14.7 58.4 22 -6.8 19.8
18:10 1011 29.85 841 24.83 14.6 58.3 22 -6.8 19.7
18:15 1011 29.85 841 24.83 14.5 58.2 23 -6.6 20.2
18:20 1011 29.85 841 24.83 14.7 58.4 22 -6.8 19.7
18:25 1011 29.85 841 24.83 14.8 58.6 23 -5.9 21.3
18:30 1011 29.85 840 24.81 14.6 58.3 24 -5.4 22.2
18:35 1011 29.85 840 24.81 14.5 58.2 24 -5.8 21.6
18:40 1011 29.85 840 24.81 14.6 58.4 23 -6 21.3
18:45 1011 29.85 840 24.81 14.4 58 25 -5.5 22.2
18:50 1011 29.85 840 24.81 14.3 57.8 24 -6 21.1
18:55 1011 29.85 840 24.81 14.1 57.4 26 -5.1 22.8
19:00 1011 29.85 840 24.81 14.1 57.3 26 -5.3 22.5
19:05 1011 29.85 840 24.81 14 57.1 26 -5 22.9
19:10 1011 29.85 840 24.81 13.9 57 26 -5.4 22.2
19:15 1011 29.85 840 24.81 13.8 56.9 26 -5.3 22.4
19:20 1011 29.85 840 24.81 13.7 56.7 27 -4.9 23.2
19:25 1011 29.85 840 24.81 13.7 56.6 28 -4.5 23.9
19:30 1011 29.85 840 24.81 13.5 56.3 28 -4.7 23.5
19:35 1011 29.85 840 24.81 13.4 56.1 28 -4.6 23.6
19:40 1011 29.85 840 24.81 13.2 55.8 29 -4.5 23.9
19:45 1011 29.85 840 24.81 13.1 55.6 29 -4.3 24.3
19:50 1011 29.85 840 24.81 12.9 55.3 30 -4.3 24.3
19:55 1011 29.85 840 24.81 12.7 54.9 31 -4 24.8
20:00 1011 29.85 840 24.81 12.5 54.5 32 -3.6 25.5
20:05 1011 29.85 840 24.81 12.2 54 33 -3.6 25.5
20:10 1011 29.85 840 24.81 12.1 53.7 33 -3.5 25.7
20:15 1011 29.85 840 24.81 11.8 53.3 34 -3.4 25.8
20:20 1011 29.85 840 24.81 11.6 52.9 35 -3.2 26.3
20:25 1011 29.85 840 24.81 11.5 52.7 35 -3.4 25.9
20:30 1011 29.85 840 24.81 11.4 52.6 35 -3.5 25.7
20:35 1011 29.85 840 24.81 11.4 52.6 34 -3.7 25.4
20:40 1011 29.85 840 24.81 11.4 52.5 34 -3.7 25.3
20:45 1011 29.85 840 24.81 11.3 52.4 35 -3.6 25.6
20:50 1011 29.85 840 24.81 11 51.9 38 -2.8 27
20:55 1011 29.85 840 24.81 10.6 51 39 -2.8 26.9
21:00 1011 29.85 840 24.81 10.3 50.6 40 -2.8 27
21:05 1011 29.85 840 24.81 10.3 50.5 39 -2.9 26.7
21:10 1011 29.85 840 24.81 10.3 50.5 39 -3 26.7
21:15 1011 29.85 840 24.81 10.3 50.5 40 -2.6 27.3
21:20 1011 29.85 840 24.81 10 50 42 -2.2 28
21:25 1011 29.85 840 24.81 9.7 49.4 44 -2 28.4
21:30 1011 29.85 840 24.81 9.4 48.9 43 -2.5 27.5
21:35 1011 29.85 840 24.81 9.6 49.3 41 -2.9 26.9
21:40 1011 29.85 840 24.81 9.7 49.4 43 -2.3 27.8
21:45 1011 29.85 840 24.81 9.6 49.3 42 -2.5 27.4
21:50 1011 29.85 840 24.81 9.6 49.4 43 -2.4 27.6
21:55 1011 29.85 840 24.81 9.7 49.4 42 -2.5 27.4
22:00 1011 29.85 840 24.81 9.7 49.4 42 -2.6 27.4
22:05 1011 29.85 840 24.81 9.7 49.5 42 -2.4 27.6
22:10 1010 29.83 840 24.81 10.1 50.1 41 -2.7 27.2
22:15 1010 29.83 840 24.81 10.2 50.3 40 -2.8 26.9
22:20 1010 29.83 840 24.81 10.4 50.7 39 -2.8 26.9
22:25 1010 29.83 840 24.81 10.6 51.1 38 -3.1 26.4
22:30 1010 29.83 840 24.81 10.9 51.5 38 -3 26.6
22:35 1010 29.83 839 24.78 11 51.9 37 -2.9 26.8
22:40 1010 29.83 839 24.78 11 51.9 38 -2.7 27.1
22:45 1010 29.83 839 24.78 11 51.9 36 -3.3 26
22:50 1010 29.83 839 24.78 11.4 52.6 36 -3 26.6
22:55 1010 29.83 839 24.78 11.2 52.1 37 -2.9 26.8
23:00 1010 29.83 839 24.78 11.3 52.3 37 -2.8 27
23:05 1010 29.83 839 24.78 11.2 52.1 38 -2.7 27.2
23:10 1010 29.83 839 24.78 10.6 51.1 38 -2.9 26.8
23:15 1010 29.83 839 24.78 10.9 51.5 37 -3.3 26.1
23:20 1010 29.83 839 24.78 11.4 52.4 34 -3.9 24.9
23:25 1010 29.83 839 24.78 11.7 53.1 35 -3.4 25.9
23:30 1010 29.83 839 24.78 11.4 52.5 35 -3.4 25.8
23:35 1009 29.8 839 24.78 11.5 52.7 34 -3.9 24.9
23:40 1009 29.8 839 24.78 11.6 52.8 36 -3.1 26.5
23:45 1009 29.8 838 24.75 11.4 52.5 35 -3.5 25.8
23:50 1009 29.8 838 24.75 11.5 52.6 34 -3.8 25.2
23:55 1009 29.8 838 24.75 11.8 53.3 34 -3.4 25.9
24:00 1009 29.8 838 24.75 11.4 52.5 36 -3 26.6